Terminal Aerodrome Forecast
Issued by NWS Shreveport, LA

Home | Current Version | Previous Version | Text Only | Print | Product List | Glossary On
Versions: 1 2 3 4 5 6 7 8 9 10 11 12 13 14 15 16 17 18
459
FTUS44 KSHV 271152
TAFGGG
TAF
KGGG 271152Z 2712/2812 18013G22KT 5SM -TSRA BR SCT025 OVC100CB
      TEMPO 2718/2722 16018G30KT 2SM TSRA BR OVC010CB
     FM272300 17012G18KT P6SM VCTS BKN020 OVC040CB
     FM280500 18008KT P6SM BKN015 OVC040=

USA.gov is the U.S. government's official web portal to all federal, state and local government web resources and services.